Time;durP1;ratioP1;P1;durP2;ratioP2;P2;SDS_P1;SDS_P2;PMS_P1;PMS_P2;Temp;Humidity;BMP_temperature;BMP_pressure;BME280_temperature;BME280_humidity;BME280_pressure;Samples;Min_cycle;Max_cycle;Signal;HPM_P1;HPM_P2
2021/05/08 00:00:07;;;;;;;3.20;0.90;;;19.80;99.90;;;;;;4972880;28;20483;-81
2021/05/08 00:02:34;;;;;;;2.40;0.82;;;19.90;99.90;;;;;;4990186;28;20400;-82
2021/05/08 00:05:00;;;;;;;2.53;0.90;;;20.00;99.90;;;;;;4990264;28;20872;-82
2021/05/08 00:07:27;;;;;;;0.98;0.80;;;20.10;99.90;;;;;;4989467;28;20500;-81
2021/05/08 00:09:54;;;;;;;2.78;0.93;;;20.10;99.90;;;;;;4991593;28;20432;-82
2021/05/08 00:12:21;;;;;;;2.47;1.00;;;20.20;99.90;;;;;;4993522;28;20388;-81
2021/05/08 00:14:48;;;;;;;2.45;0.80;;;20.30;99.90;;;;;;4996867;28;20391;-81
2021/05/08 00:17:15;;;;;;;2.25;1.00;;;20.30;99.90;;;;;;5006747;28;20821;-81
2021/05/08 00:19:42;;;;;;;1.60;0.80;;;20.50;99.90;;;;;;5029407;28;20448;-81
2021/05/08 00:22:09;;;;;;;2.90;0.80;;;20.50;99.90;;;;;;5010836;28;20392;-81
2021/05/08 00:24:36;;;;;;;1.25;0.60;;;20.60;99.90;;;;;;5029250;28;20860;-81
2021/05/08 00:27:03;;;;;;;2.35;0.73;;;20.60;99.90;;;;;;5029306;28;20368;-82
2021/05/08 00:29:30;;;;;;;2.45;0.73;;;20.60;99.90;;;;;;5011244;28;20393;-82
2021/05/08 00:31:57;;;;;;;1.58;0.60;;;20.70;99.90;;;;;;5011190;28;20415;-82
2021/05/08 00:34:24;;;;;;;3.78;0.73;;;20.70;99.90;;;;;;5029081;28;20393;-82
2021/05/08 00:36:51;;;;;;;1.58;0.85;;;20.70;99.90;;;;;;5029047;28;20404;-81
2021/05/08 00:39:18;;;;;;;2.95;0.73;;;20.80;99.90;;;;;;5028020;28;20413;-82
2021/05/08 00:41:45;;;;;;;2.85;0.60;;;20.90;99.90;;;;;;5029004;28;20377;-82
2021/05/08 00:44:12;;;;;;;0.65;0.63;;;21.00;99.90;;;;;;5029420;28;20468;-82
2021/05/08 00:46:39;;;;;;;1.90;0.90;;;21.10;99.90;;;;;;5020369;28;20386;-82
2021/05/08 00:49:06;;;;;;;1.55;0.60;;;21.10;99.90;;;;;;4991561;28;20507;-82
2021/05/08 00:51:33;;;;;;;2.28;0.73;;;21.30;99.90;;;;;;5009175;28;20379;-82
2021/05/08 00:54:00;;;;;;;0.90;0.65;;;21.20;99.90;;;;;;4991449;28;20387;-82
2021/05/08 00:56:27;;;;;;;1.55;0.95;;;21.30;99.90;;;;;;5014048;28;20885;-82
2021/05/08 00:58:54;;;;;;;1.85;0.60;;;21.20;99.90;;;;;;5028626;28;20412;-82
2021/05/08 01:01:21;;;;;;;2.80;0.70;;;21.40;99.90;;;;;;5010861;28;20381;-82
2021/05/08 01:03:49;;;;;;;2.97;0.77;;;21.60;99.90;;;;;;5028771;28;20416;-82
2021/05/08 01:06:16;;;;;;;0.93;0.57;;;21.60;99.90;;;;;;5028797;28;20374;-82
2021/05/08 01:08:44;;;;;;;2.40;0.60;;;21.60;99.90;;;;;;5027091;28;20383;-82
2021/05/08 01:11:12;;;;;;;0.93;0.70;;;21.70;99.90;;;;;;5021874;28;20428;-82
2021/05/08 01:13:39;;;;;;;1.55;0.60;;;21.80;99.90;;;;;;5010884;28;20904;-82
2021/05/08 01:16:06;;;;;;;2.00;0.60;;;21.90;99.90;;;;;;5009754;28;20448;-83
2021/05/08 01:18:33;;;;;;;1.87;0.90;;;21.80;99.90;;;;;;5028523;28;20462;-82
2021/05/08 01:21:01;;;;;;;2.27;0.80;;;21.90;99.90;;;;;;5009630;28;20395;-82
2021/05/08 01:23:29;;;;;;;1.88;0.90;;;22.00;99.90;;;;;;5008899;28;20428;-82
2021/05/08 01:25:56;;;;;;;1.40;0.80;;;22.00;99.90;;;;;;4994626;28;20391;-82
2021/05/08 01:28:26;;;;;;;1.60;0.73;;;22.00;99.90;;;;;;5012743;28;20387;-82
2021/05/08 01:30:53;;;;;;;2.47;0.82;;;22.00;99.90;;;;;;5012601;28;20386;-82
2021/05/08 01:33:20;;;;;;;1.52;0.88;;;22.10;99.90;;;;;;5031871;28;20746;-82
2021/05/08 01:35:47;;;;;;;3.03;0.85;;;22.00;99.90;;;;;;5008573;28;20449;-83
2021/05/08 01:38:14;;;;;;;3.40;0.90;;;21.90;99.90;;;;;;5009482;28;20408;-82
2021/05/08 01:40:42;;;;;;;1.05;0.70;;;21.90;99.90;;;;;;5030225;28;20727;-82
2021/05/08 01:43:09;;;;;;;1.90;0.80;;;22.00;99.90;;;;;;5028984;28;20454;-82
2021/05/08 01:45:36;;;;;;;1.42;0.90;;;21.90;99.90;;;;;;5013297;28;20383;-83
2021/05/08 01:48:07;;;;;;;1.42;0.70;;;21.80;99.90;;;;;;5023481;28;20384;-82
2021/05/08 01:50:34;;;;;;;1.15;0.90;;;21.80;99.90;;;;;;5023602;28;20424;-82
2021/05/08 01:53:01;;;;;;;2.22;0.70;;;21.70;99.90;;;;;;5011205;28;20769;-82
2021/05/08 01:55:29;;;;;;;3.17;0.80;;;21.60;99.90;;;;;;5009143;28;20404;-82
2021/05/08 01:57:59;;;;;;;0.67;0.60;;;21.50;99.90;;;;;;5022277;28;20487;-83
2021/05/08 02:00:37;;;;;;;1.60;0.68;;;21.30;99.90;;;;;;5026373;28;22114;-80
2021/05/08 02:03:05;;;;;;;1.35;0.80;;;21.30;99.90;;;;;;5002263;28;20393;-83
2021/05/08 02:05:35;;;;;;;2.35;0.70;;;21.20;99.90;;;;;;5010543;28;20393;-82
2021/05/08 02:08:04;;;;;;;3.47;0.80;;;21.10;99.90;;;;;;5027883;28;20437;-82
2021/05/08 02:10:32;;;;;;;2.83;0.80;;;21.10;99.90;;;;;;5002939;28;20397;-83
2021/05/08 02:13:04;;;;;;;3.17;0.75;;;21.10;99.90;;;;;;5019317;28;20405;-80
2021/05/08 02:15:31;;;;;;;4.35;0.80;;;21.10;99.90;;;;;;5005076;28;20399;-83
2021/05/08 02:17:59;;;;;;;2.57;0.77;;;21.20;99.90;;;;;;5025872;28;20414;-82
2021/05/08 02:20:27;;;;;;;2.72;0.98;;;21.30;99.90;;;;;;5019021;28;20375;-81
2021/05/08 02:22:59;;;;;;;2.63;0.80;;;21.50;99.90;;;;;;5017081;28;20401;-81
2021/05/08 02:25:28;;;;;;;4.55;0.75;;;21.60;99.90;;;;;;4993225;28;20379;-81
2021/05/08 02:27:55;;;;;;;3.22;0.80;;;21.60;99.90;;;;;;5020764;28;20532;-82
2021/05/08 02:30:25;;;;;;;3.40;0.85;;;21.60;99.90;;;;;;5021425;28;20401;-82
2021/05/08 02:32:52;;;;;;;1.65;0.75;;;21.50;99.90;;;;;;5024639;28;20488;-83
2021/05/08 02:35:21;;;;;;;3.67;0.95;;;21.60;99.90;;;;;;5022112;28;20748;-84
2021/05/08 02:37:51;;;;;;;1.70;1.00;;;21.60;99.90;;;;;;5023418;28;20404;-83
2021/05/08 02:40:23;;;;;;;1.70;1.07;;;21.60;99.90;;;;;;5020885;28;20839;-81
2021/05/08 02:42:50;;;;;;;2.65;0.93;;;21.60;99.90;;;;;;5016644;28;20402;-82
2021/05/08 02:45:17;;;;;;;2.65;1.17;;;21.70;99.90;;;;;;5018272;28;20441;-82
2021/05/08 02:47:47;;;;;;;3.38;1.08;;;21.60;99.90;;;;;;5028095;28;20753;-81
2021/05/08 02:50:16;;;;;;;2.20;1.25;;;21.70;99.90;;;;;;5030276;28;20461;-81
2021/05/08 02:52:43;;;;;;;2.92;1.15;;;21.70;99.90;;;;;;5030336;28;20425;-82
2021/05/08 02:55:12;;;;;;;3.90;1.17;;;21.60;99.90;;;;;;5027222;28;20397;-81
2021/05/08 02:57:39;;;;;;;1.95;1.10;;;21.70;99.90;;;;;;5025670;28;20882;-82
2021/05/08 03:00:09;;;;;;;1.52;0.77;;;21.60;99.90;;;;;;5012749;28;20398;-82
2021/05/08 03:02:36;;;;;;;1.50;1.27;;;21.60;99.90;;;;;;5030846;28;20595;-82
2021/05/08 03:05:04;;;;;;;2.38;1.15;;;21.60;99.90;;;;;;4994321;28;20379;-82
2021/05/08 03:07:31;;;;;;;2.60;1.35;;;21.80;99.90;;;;;;5016595;28;20761;-82
2021/05/08 03:09:58;;;;;;;2.75;1.40;;;21.90;99.90;;;;;;5003380;28;21171;-82
2021/05/08 03:12:25;;;;;;;3.85;1.30;;;21.90;99.90;;;;;;5024475;28;20760;-82
2021/05/08 03:14:52;;;;;;;1.90;1.20;;;21.90;99.90;;;;;;4995892;28;20804;-82
2021/05/08 03:17:19;;;;;;;2.10;1.30;;;21.90;99.90;;;;;;5015235;28;20709;-82
2021/05/08 03:19:46;;;;;;;2.92;1.10;;;22.00;99.90;;;;;;5014308;28;20413;-83
2021/05/08 03:22:13;;;;;;;5.53;1.40;;;22.10;99.90;;;;;;5019575;28;20523;-83
2021/05/08 03:24:40;;;;;;;4.78;1.02;;;22.10;99.90;;;;;;5017913;28;20402;-82
2021/05/08 03:27:07;;;;;;;2.70;0.95;;;22.20;99.90;;;;;;4989185;28;20742;-82
2021/05/08 03:29:34;;;;;;;3.55;1.20;;;22.20;99.90;;;;;;4995240;28;20929;-82
2021/05/08 03:32:01;;;;;;;3.85;1.40;;;22.30;99.90;;;;;;5016620;28;20758;-83
2021/05/08 03:34:28;;;;;;;1.45;0.98;;;22.30;99.90;;;;;;5020716;28;20410;-82
2021/05/08 03:36:55;;;;;;;1.58;0.90;;;22.30;99.90;;;;;;5026300;28;20381;-82
2021/05/08 03:39:22;;;;;;;1.95;0.90;;;22.30;99.90;;;;;;5024236;28;20412;-82
2021/05/08 03:41:49;;;;;;;2.28;1.08;;;22.20;99.90;;;;;;5024522;28;20415;-81
2021/05/08 03:44:16;;;;;;;1.63;1.40;;;22.20;99.90;;;;;;5021023;28;20443;-82
2021/05/08 03:46:43;;;;;;;3.10;1.30;;;22.20;99.90;;;;;;5010741;28;20405;-82
2021/05/08 03:49:10;;;;;;;4.13;1.23;;;22.20;99.90;;;;;;5017713;28;20405;-81
2021/05/08 03:51:37;;;;;;;1.40;0.90;;;22.20;99.90;;;;;;5018514;28;20385;-81
2021/05/08 03:54:05;;;;;;;1.60;1.08;;;22.30;99.90;;;;;;5028349;28;20792;-81
2021/05/08 03:56:32;;;;;;;3.97;1.15;;;22.20;99.90;;;;;;5026943;28;20417;-82
2021/05/08 03:58:59;;;;;;;2.20;0.80;;;22.30;99.90;;;;;;5011342;28;20525;-81
2021/05/08 04:01:26;;;;;;;4.40;1.00;;;22.30;99.90;;;;;;5010709;28;20383;-82
2021/05/08 04:03:53;;;;;;;2.47;0.87;;;22.30;99.90;;;;;;5014145;28;20397;-82
2021/05/08 04:06:20;;;;;;;2.10;1.00;;;22.30;99.90;;;;;;5010766;28;20399;-81
2021/05/08 04:08:48;;;;;;;1.40;0.80;;;22.20;99.90;;;;;;5021903;28;20873;-81
2021/05/08 04:11:16;;;;;;;2.13;0.90;;;22.00;99.90;;;;;;5029238;28;20459;-84
2021/05/08 04:13:43;;;;;;;2.00;1.00;;;21.70;99.90;;;;;;5028726;28;20389;-83
2021/05/08 04:16:10;;;;;;;2.87;1.20;;;21.60;99.90;;;;;;5023984;28;20415;-83
2021/05/08 04:18:38;;;;;;;1.48;1.17;;;21.40;99.90;;;;;;5016801;28;20426;-83
2021/05/08 04:21:05;;;;;;;2.53;1.13;;;21.30;99.90;;;;;;5024795;28;20393;-83
2021/05/08 04:23:32;;;;;;;1.73;0.90;;;21.40;99.90;;;;;;5019515;28;20383;-83
2021/05/08 04:25:59;;;;;;;3.65;1.00;;;21.50;99.90;;;;;;5022702;28;20865;-83
2021/05/08 04:28:26;;;;;;;3.00;1.00;;;21.60;99.90;;;;;;5002447;28;20883;-82
2021/05/08 04:30:53;;;;;;;4.93;1.00;;;21.70;99.90;;;;;;5009088;28;20371;-84
2021/05/08 04:33:20;;;;;;;1.13;1.00;;;21.70;99.90;;;;;;5010968;28;20746;-83
2021/05/08 04:35:47;;;;;;;3.13;1.10;;;21.60;99.90;;;;;;5030544;28;20389;-83
2021/05/08 04:38:15;;;;;;;3.05;1.05;;;21.60;99.90;;;;;;5025117;28;20437;-83
2021/05/08 04:40:42;;;;;;;3.70;1.10;;;21.50;99.90;;;;;;5028442;28;20385;-83
2021/05/08 04:43:09;;;;;;;6.50;3.87;;;21.60;99.90;;;;;;5028934;28;20391;-81
2021/05/08 04:45:36;;;;;;;2.88;2.60;;;21.70;99.90;;;;;;5028470;28;20460;-80
2021/05/08 04:48:03;;;;;;;1.40;1.10;;;21.70;99.90;;;;;;5013175;28;20383;-80
2021/05/08 04:50:31;;;;;;;3.55;1.40;;;21.80;99.90;;;;;;5013060;28;20966;-81
2021/05/08 04:52:57;;;;;;;1.93;1.10;;;21.90;99.90;;;;;;5018793;28;20491;-80
2021/05/08 04:55:24;;;;;;;2.30;1.00;;;22.00;99.90;;;;;;5008721;28;20527;-82
2021/05/08 04:57:51;;;;;;;2.92;0.90;;;22.10;99.90;;;;;;5010833;28;21471;-80
2021/05/08 05:00:19;;;;;;;2.15;0.95;;;22.20;99.90;;;;;;5004564;28;20425;-80
2021/05/08 05:02:48;;;;;;;2.83;1.00;;;22.20;99.90;;;;;;5027202;28;20990;-80
2021/05/08 05:05:15;;;;;;;2.95;1.00;;;22.20;99.90;;;;;;5016143;28;20393;-81
2021/05/08 05:07:47;;;;;;;2.70;0.80;;;22.10;99.90;;;;;;5026975;28;20467;-80
2021/05/08 05:10:14;;;;;;;2.80;0.95;;;22.00;99.90;;;;;;5024202;28;20892;-81
2021/05/08 05:13:04;;;;;;;1.98;1.10;;;21.90;99.90;;;;;;5022395;28;20443;-81
2021/05/08 05:15:52;;;;;;;2.00;0.98;;;21.70;99.90;;;;;;5014981;28;20940;-80
2021/05/08 05:18:19;;;;;;;1.23;1.00;;;21.70;99.90;;;;;;5009229;28;20479;-78
2021/05/08 05:20:46;;;;;;;1.80;0.77;;;21.60;99.90;;;;;;5027507;28;20385;-80
2021/05/08 05:23:14;;;;;;;5.50;1.30;;;21.60;99.90;;;;;;5020666;28;20906;-80
2021/05/08 05:25:41;;;;;;;3.53;1.00;;;21.60;99.90;;;;;;5018609;28;20906;-80
2021/05/08 05:28:28;;;;;;;1.55;1.00;;;21.60;99.90;;;;;;5007587;28;20401;-82
2021/05/08 05:30:56;;;;;;;1.52;0.80;;;21.60;99.90;;;;;;4997666;28;20397;-82
2021/05/08 05:33:24;;;;;;;2.05;0.90;;;21.60;99.90;;;;;;5005067;28;20966;-81
2021/05/08 05:35:52;;;;;;;1.75;0.90;;;21.50;99.90;;;;;;5015094;28;20451;-81
2021/05/08 05:38:19;;;;;;;2.60;0.90;;;21.50;99.90;;;;;;5011104;28;20415;-82
2021/05/08 05:40:46;;;;;;;2.45;1.10;;;21.50;99.90;;;;;;5024724;28;20385;-83
2021/05/08 05:43:13;;;;;;;2.07;1.07;;;21.40;99.90;;;;;;5015156;28;20489;-82
2021/05/08 05:45:40;;;;;;;2.05;0.95;;;21.40;99.90;;;;;;5024658;28;20576;-82
2021/05/08 05:48:08;;;;;;;2.80;1.10;;;21.30;99.90;;;;;;5026898;28;20476;-81
2021/05/08 05:50:39;;;;;;;2.53;1.20;;;21.20;99.90;;;;;;5026328;28;20394;-82
2021/05/08 05:53:07;;;;;;;1.48;1.25;;;21.20;99.90;;;;;;5009721;28;20415;-83
2021/05/08 05:55:34;;;;;;;3.47;1.90;;;21.20;99.90;;;;;;5023532;28;20389;-82
2021/05/08 05:58:01;;;;;;;3.03;2.37;;;21.20;99.90;;;;;;5010229;28;20501;-82
2021/05/08 06:00:28;;;;;;;4.57;1.50;;;21.10;99.90;;;;;;5008685;28;20425;-82
2021/05/08 06:02:55;;;;;;;1.55;0.90;;;21.10;99.90;;;;;;5010551;28;20383;-81
2021/05/08 06:05:22;;;;;;;2.10;0.90;;;21.10;99.90;;;;;;5010397;28;20464;-81
2021/05/08 06:07:49;;;;;;;1.92;1.20;;;21.10;99.90;;;;;;5010799;28;20470;-81
2021/05/08 06:10:16;;;;;;;1.30;1.10;;;21.10;99.90;;;;;;5008694;28;20878;-81
2021/05/08 06:12:43;;;;;;;1.38;0.75;;;21.10;99.90;;;;;;5013471;28;20443;-81
2021/05/08 06:15:12;;;;;;;3.45;1.27;;;21.00;99.90;;;;;;5017612;28;20402;-80
2021/05/08 06:17:40;;;;;;;1.00;0.90;;;21.00;99.90;;;;;;4994307;28;20453;-81
2021/05/08 06:20:08;;;;;;;2.53;0.90;;;21.00;99.90;;;;;;5012001;28;20441;-80
2021/05/08 06:22:35;;;;;;;2.60;0.90;;;20.90;99.90;;;;;;4994145;28;20401;-81
2021/05/08 06:25:03;;;;;;;2.05;1.10;;;20.80;99.90;;;;;;5013944;28;20500;-81
2021/05/08 06:27:30;;;;;;;2.25;1.05;;;20.70;99.90;;;;;;5031610;28;20431;-81
2021/05/08 06:29:57;;;;;;;2.40;1.10;;;20.60;99.90;;;;;;5027886;28;20406;-81
2021/05/08 06:32:24;;;;;;;2.30;1.02;;;20.50;99.90;;;;;;5011558;28;20521;-81
2021/05/08 06:34:51;;;;;;;4.22;1.50;;;20.50;99.90;;;;;;5011537;28;20850;-81
2021/05/08 06:37:18;;;;;;;4.18;1.15;;;20.40;99.90;;;;;;4993871;28;20383;-82
2021/05/08 06:39:45;;;;;;;3.08;1.00;;;20.40;99.90;;;;;;4994130;28;20878;-81
2021/05/08 06:42:12;;;;;;;1.50;1.15;;;20.30;99.90;;;;;;5011217;28;20386;-81
2021/05/08 06:44:39;;;;;;;1.80;1.00;;;20.30;99.90;;;;;;4993867;28;20387;-81
2021/05/08 06:47:13;;;;;;;1.83;1.02;;;20.20;99.90;;;;;;4993991;28;20726;-81
2021/05/08 06:49:44;;;;;;;3.55;1.00;;;20.10;99.90;;;;;;4993778;28;20400;-81
2021/05/08 06:52:11;;;;;;;1.30;1.00;;;20.00;99.90;;;;;;5014813;28;20761;-81
2021/05/08 06:54:39;;;;;;;1.92;1.15;;;19.90;99.90;;;;;;5030924;28;20444;-81
2021/05/08 06:57:08;;;;;;;4.28;1.70;;;19.70;99.90;;;;;;5013157;28;20459;-81
2021/05/08 06:59:35;;;;;;;4.82;1.35;;;19.70;99.90;;;;;;5013060;28;20581;-81
2021/05/08 07:02:04;;;;;;;1.70;1.20;;;19.50;99.90;;;;;;5011524;28;20458;-82
2021/05/08 07:04:32;;;;;;;1.75;0.95;;;19.40;99.90;;;;;;5018929;28;20390;-81
2021/05/08 07:06:59;;;;;;;2.25;1.00;;;19.30;99.90;;;;;;5011024;28;20371;-81
2021/05/08 07:09:26;;;;;;;1.70;0.90;;;19.20;99.90;;;;;;5015441;28;20405;-80
2021/05/08 07:11:53;;;;;;;2.60;0.90;;;19.10;99.90;;;;;;5019319;28;20795;-81
2021/05/08 07:14:20;;;;;;;2.85;1.08;;;19.00;99.90;;;;;;5007251;28;20411;-80
2021/05/08 07:16:47;;;;;;;2.90;0.90;;;19.00;99.90;;;;;;5021505;28;20412;-80
2021/05/08 07:19:14;;;;;;;1.13;0.95;;;18.90;99.90;;;;;;5021331;28;20418;-81
2021/05/08 07:21:41;;;;;;;1.42;0.80;;;18.70;99.90;;;;;;5004875;28;20394;-82
2021/05/08 07:24:08;;;;;;;2.63;0.80;;;18.70;99.90;;;;;;5025324;28;20402;-82
2021/05/08 07:26:35;;;;;;;1.98;0.98;;;18.60;99.90;;;;;;5025905;28;20428;-80
2021/05/08 07:29:02;;;;;;;2.63;1.10;;;18.50;99.90;;;;;;5010970;28;20386;-81
2021/05/08 07:31:29;;;;;;;1.55;0.90;;;18.50;99.90;;;;;;5028667;28;20401;-81
2021/05/08 07:33:56;;;;;;;1.48;1.00;;;18.40;99.90;;;;;;5011075;28;21409;-81
2021/05/08 07:36:23;;;;;;;1.83;0.73;;;18.40;99.90;;;;;;5011054;28;20444;-81
2021/05/08 07:38:51;;;;;;;2.33;0.80;;;18.30;99.90;;;;;;5028235;28;20436;-81
2021/05/08 07:41:18;;;;;;;1.52;1.10;;;18.30;99.90;;;;;;5028133;28;20815;-81
2021/05/08 07:43:44;;;;;;;1.13;1.00;;;18.30;99.90;;;;;;5026734;28;20393;-81
2021/05/08 07:46:12;;;;;;;1.75;1.30;;;18.20;99.90;;;;;;5028914;28;20393;-81
2021/05/08 07:48:39;;;;;;;1.30;1.20;;;18.20;99.90;;;;;;5029009;28;20406;-81
2021/05/08 07:51:06;;;;;;;4.87;1.23;;;18.20;99.90;;;;;;5027426;28;20479;-81
2021/05/08 07:53:33;;;;;;;1.90;1.73;;;18.10;99.90;;;;;;5026300;28;20401;-80
2021/05/08 07:56:00;;;;;;;4.30;2.20;;;18.10;99.90;;;;;;5010059;28;20381;-81
2021/05/08 07:58:28;;;;;;;3.38;1.83;;;18.10;99.90;;;;;;5010863;28;20398;-82
2021/05/08 08:00:55;;;;;;;2.33;1.58;;;18.10;99.90;;;;;;5028523;28;20484;-80
2021/05/08 08:03:22;;;;;;;1.95;1.48;;;18.00;99.90;;;;;;5027900;28;20385;-81
2021/05/08 08:05:48;;;;;;;2.65;1.30;;;18.10;99.90;;;;;;5009638;28;20405;-81
2021/05/08 08:08:15;;;;;;;1.75;1.23;;;18.00;99.90;;;;;;5011612;28;20393;-81
2021/05/08 08:10:42;;;;;;;2.20;1.02;;;18.10;99.90;;;;;;5000086;28;20405;-81
2021/05/08 08:13:09;;;;;;;1.60;1.10;;;18.00;99.90;;;;;;5003581;28;20402;-81
2021/05/08 08:15:36;;;;;;;1.73;1.10;;;18.00;99.90;;;;;;5023039;28;20924;-84
2021/05/08 08:18:07;;;;;;;2.97;1.10;;;18.00;99.90;;;;;;5017075;28;20889;-81
2021/05/08 08:20:34;;;;;;;3.40;1.30;;;18.00;99.90;;;;;;5022237;28;21179;-82
2021/05/08 08:23:01;;;;;;;5.80;2.35;;;18.00;99.90;;;;;;5014374;28;21141;-82
2021/05/08 08:25:28;;;;;;;8.35;3.90;;;18.00;99.90;;;;;;5017836;28;20476;-83
2021/05/08 08:27:55;;;;;;;6.67;3.13;;;18.00;99.90;;;;;;5022854;28;20573;-81
2021/05/08 08:30:22;;;;;;;7.93;3.30;;;18.10;99.90;;;;;;5025885;28;20507;-82
2021/05/08 08:32:49;;;;;;;5.57;1.90;;;18.10;99.90;;;;;;5021251;28;20493;-81
2021/05/08 08:35:16;;;;;;;3.33;1.67;;;18.10;99.90;;;;;;5008778;28;20391;-81
2021/05/08 08:37:43;;;;;;;3.38;1.60;;;18.10;99.90;;;;;;5012390;28;20474;-82
2021/05/08 08:40:10;;;;;;;4.38;1.52;;;18.10;99.90;;;;;;5006415;28;20402;-81
2021/05/08 08:42:38;;;;;;;2.30;1.50;;;18.10;99.90;;;;;;5016700;28;20395;-82
2021/05/08 08:45:06;;;;;;;1.40;1.30;;;18.10;99.90;;;;;;5013561;28;20402;-82
2021/05/08 08:47:35;;;;;;;3.28;1.70;;;18.10;99.90;;;;;;5025939;28;20480;-81
2021/05/08 08:50:08;;;;;;;2.30;1.75;;;18.10;99.90;;;;;;5027480;28;20424;-82
2021/05/08 08:52:35;;;;;;;3.57;2.00;;;18.10;99.90;;;;;;5025714;28;20393;-82
2021/05/08 08:55:03;;;;;;;1.92;1.23;;;18.00;99.90;;;;;;5008879;28;20911;-81
2021/05/08 08:57:38;;;;;;;2.38;1.85;;;18.00;99.90;;;;;;5001941;28;20422;-81
2021/05/08 09:00:10;;;;;;;2.63;2.00;;;18.00;99.90;;;;;;5001712;28;20527;-81
2021/05/08 09:02:37;;;;;;;3.60;1.40;;;17.90;99.90;;;;;;5021859;28;20397;-81
2021/05/08 09:05:12;;;;;;;1.85;1.30;;;17.90;99.90;;;;;;5022264;28;20405;-81
2021/05/08 09:07:44;;;;;;;4.15;1.30;;;17.70;99.90;;;;;;5022247;28;20904;-80
2021/05/08 09:10:31;;;;;;;1.40;1.20;;;17.70;99.90;;;;;;5001155;28;20410;-81
2021/05/08 09:13:03;;;;;;;2.15;1.20;;;17.70;99.90;;;;;;5019111;28;20483;-81
2021/05/08 09:15:42;;;;;;;2.65;1.20;;;17.60;99.90;;;;;;5018217;28;20413;-81
2021/05/08 09:18:30;;;;;;;2.17;1.52;;;17.60;99.90;;;;;;4999963;28;20415;-83
2021/05/08 09:20:57;;;;;;;3.53;1.25;;;17.60;99.90;;;;;;5000968;28;20762;-82
2021/05/08 09:23:29;;;;;;;2.58;1.30;;;17.70;99.90;;;;;;5018616;28;21522;-83
2021/05/08 09:26:01;;;;;;;2.33;1.30;;;17.70;99.90;;;;;;5007599;28;20491;-82
2021/05/08 09:28:29;;;;;;;4.00;1.60;;;17.70;99.90;;;;;;5021221;28;20399;-85
2021/05/08 09:30:58;;;;;;;2.75;1.38;;;17.80;99.90;;;;;;5019796;28;20400;-83
2021/05/08 09:33:27;;;;;;;1.73;1.33;;;17.80;99.90;;;;;;5019596;28;20393;-83
2021/05/08 09:36:06;;;;;;;2.92;1.50;;;17.80;99.90;;;;;;5024132;28;20451;-83
2021/05/08 09:38:44;;;;;;;3.30;1.77;;;17.80;99.90;;;;;;5017160;28;20423;-83
2021/05/08 09:41:16;;;;;;;2.13;1.45;;;17.90;99.90;;;;;;5007812;28;20393;-83
2021/05/08 09:43:46;;;;;;;3.00;1.70;;;17.90;99.90;;;;;;5020809;28;20420;-83
2021/05/08 09:46:30;;;;;;;2.80;1.90;;;18.00;99.90;;;;;;5021215;28;20393;-83
2021/05/08 09:49:10;;;;;;;3.42;1.60;;;18.00;99.90;;;;;;5023622;28;20401;-83
2021/05/08 09:51:37;;;;;;;3.15;1.80;;;18.00;99.90;;;;;;5025362;28;20397;-82
2021/05/08 09:54:10;;;;;;;2.90;1.90;;;17.90;99.90;;;;;;5024890;28;20925;-83
2021/05/08 09:56:46;;;;;;;3.92;2.03;;;17.90;99.90;;;;;;5022776;28;20381;-82
2021/05/08 09:59:37;;;;;;;4.10;2.28;;;17.90;99.90;;;;;;5023951;28;20444;-84
2021/05/08 10:02:05;;;;;;;2.77;2.00;;;17.90;99.90;;;;;;5019456;28;20442;-83
2021/05/08 10:04:47;;;;;;;5.55;2.13;;;17.90;99.90;;;;;;5012914;28;20401;-83
2021/05/08 10:07:25;;;;;;;4.38;2.47;;;17.90;99.90;;;;;;5027433;28;20488;-83
2021/05/08 10:09:59;;;;;;;2.90;2.00;;;17.90;99.90;;;;;;5028957;28;20396;-83
2021/05/08 10:12:28;;;;;;;2.92;2.20;;;17.80;99.90;;;;;;5011359;28;20390;-82
2021/05/08 10:14:57;;;;;;;3.95;2.00;;;17.80;99.90;;;;;;5003003;28;20748;-83
2021/05/08 10:17:25;;;;;;;3.50;2.40;;;17.80;99.90;;;;;;4998920;28;20470;-83
2021/05/08 10:20:06;;;;;;;4.40;2.40;;;17.80;99.90;;;;;;4999013;28;20470;-84
2021/05/08 10:22:58;;;;;;;4.22;2.47;;;17.80;99.90;;;;;;5005635;28;20407;-85
2021/05/08 10:25:28;;;;;;;2.63;1.88;;;17.80;99.90;;;;;;4991040;28;20488;-84
2021/05/08 10:27:55;;;;;;;2.70;1.90;;;17.80;99.90;;;;;;4989490;28;20431;-83
2021/05/08 10:30:32;;;;;;;3.63;1.80;;;17.80;99.90;;;;;;4994391;28;20755;-83
2021/05/08 10:33:01;;;;;;;2.72;1.95;;;17.80;99.90;;;;;;4993635;28;20406;-83
2021/05/08 10:35:45;;;;;;;3.38;2.22;;;17.80;99.90;;;;;;4978872;28;20494;-83
2021/05/08 10:38:40;;;;;;;3.67;2.65;;;17.80;99.90;;;;;;4974142;28;20889;-83
2021/05/08 10:41:12;;;;;;;4.97;2.92;;;17.70;99.90;;;;;;4993121;28;20388;-83
2021/05/08 10:43:41;;;;;;;3.72;2.50;;;17.70;99.90;;;;;;4984385;28;20408;-83
2021/05/08 10:46:12;;;;;;;3.22;2.10;;;17.70;99.90;;;;;;5009595;28;20461;-83
2021/05/08 10:48:40;;;;;;;2.77;2.00;;;17.70;99.90;;;;;;4991831;28;20420;-84
2021/05/08 10:51:07;;;;;;;2.80;2.00;;;17.70;99.90;;;;;;4991815;28;20415;-85
2021/05/08 10:53:45;;;;;;;4.00;1.90;;;17.70;99.90;;;;;;4984441;28;20400;-84
2021/05/08 10:56:33;;;;;;;2.13;1.70;;;17.70;99.90;;;;;;5011543;28;20859;-85
2021/05/08 10:59:05;;;;;;;3.50;1.90;;;17.70;99.90;;;;;;4993489;28;20494;-86
2021/05/08 11:01:45;;;;;;;2.20;1.73;;;17.70;99.90;;;;;;5011266;28;20386;-84
2021/05/08 11:04:13;;;;;;;4.53;1.98;;;17.70;99.90;;;;;;5010544;28;20409;-84
2021/05/08 11:06:40;;;;;;;1.73;1.60;;;17.60;99.90;;;;;;4991627;28;20397;-84
2021/05/08 11:09:32;;;;;;;2.85;1.80;;;17.60;99.90;;;;;;4999701;28;20415;-84
2021/05/08 11:11:59;;;;;;;1.90;1.70;;;17.60;99.90;;;;;;4991538;28;20427;-85
2021/05/08 11:14:55;;;;;;;1.60;1.50;;;17.60;99.90;;;;;;4986631;28;20442;-84
2021/05/08 11:17:22;;;;;;;4.80;1.63;;;17.50;99.90;;;;;;4975466;28;20895;-85
2021/05/08 11:19:49;;;;;;;2.77;1.60;;;17.50;99.90;;;;;;4995269;28;20504;-84
2021/05/08 11:22:32;;;;;;;2.10;1.90;;;17.50;99.90;;;;;;5010038;28;20395;-84
2021/05/08 11:24:59;;;;;;;6.03;1.85;;;17.50;99.90;;;;;;5004150;28;20387;-84
2021/05/08 11:27:27;;;;;;;3.00;1.90;;;17.50;99.90;;;;;;5007560;28;20395;-85
2021/05/08 11:30:03;;;;;;;2.33;1.75;;;17.50;99.90;;;;;;5005717;28;20474;-85
2021/05/08 11:32:30;;;;;;;3.80;2.00;;;17.40;99.90;;;;;;5000404;28;20401;-85
2021/05/08 11:34:59;;;;;;;2.85;1.60;;;17.40;99.90;;;;;;4973561;28;20415;-85
2021/05/08 11:37:26;;;;;;;1.88;1.60;;;17.40;99.90;;;;;;4990930;28;20392;-84
2021/05/08 11:39:53;;;;;;;2.10;1.60;;;17.40;99.90;;;;;;4981548;28;20492;-84
2021/05/08 11:42:25;;;;;;;4.10;2.10;;;17.40;99.90;;;;;;4991006;28;20777;-84
2021/05/08 11:44:55;;;;;;;2.20;1.88;;;17.40;99.90;;;;;;4982195;28;20455;-84
2021/05/08 11:47:27;;;;;;;4.38;1.90;;;17.40;99.90;;;;;;4976756;28;20387;-83
2021/05/08 11:50:07;;;;;;;2.70;1.80;;;17.40;99.90;;;;;;5010292;28;20482;-84
2021/05/08 11:53:03;;;;;;;3.00;1.85;;;17.30;99.90;;;;;;4991852;28;20493;-84
2021/05/08 11:55:31;;;;;;;3.17;1.95;;;17.30;99.90;;;;;;4971706;28;20490;-84
2021/05/08 11:58:00;;;;;;;5.85;1.73;;;17.30;99.90;;;;;;4997907;28;20392;-83
2021/05/08 12:00:31;;;;;;;4.00;1.77;;;17.30;99.90;;;;;;5007613;28;20794;-85
2021/05/08 12:03:13;;;;;;;2.58;1.67;;;17.30;99.90;;;;;;4985071;28;20399;-83
2021/05/08 12:05:44;;;;;;;4.70;2.00;;;17.30;99.90;;;;;;4984008;28;20408;-83
2021/05/08 12:08:15;;;;;;;3.60;2.00;;;17.30;99.90;;;;;;5007694;28;20371;-84
2021/05/08 12:10:43;;;;;;;2.80;1.90;;;17.20;99.90;;;;;;4976793;28;20734;-84
2021/05/08 12:13:11;;;;;;;2.15;1.67;;;17.20;99.90;;;;;;5004223;28;20399;-84
2021/05/08 12:15:40;;;;;;;3.40;1.58;;;17.20;99.90;;;;;;4984997;28;20492;-84
2021/05/08 12:18:12;;;;;;;4.60;1.70;;;17.10;99.90;;;;;;4974082;28;20412;-84
2021/05/08 12:20:45;;;;;;;3.80;1.50;;;17.10;99.90;;;;;;4987452;28;20782;-84
2021/05/08 12:23:24;;;;;;;3.38;1.67;;;17.10;99.90;;;;;;4998107;28;20839;-84
2021/05/08 12:26:19;;;;;;;3.50;1.67;;;17.00;99.90;;;;;;5000410;28;20405;-84
2021/05/08 12:28:45;;;;;;;2.70;1.90;;;17.00;99.90;;;;;;4979164;28;20400;-84
2021/05/08 12:31:34;;;;;;;2.78;1.70;;;17.00;99.90;;;;;;5005732;28;20395;-84
2021/05/08 12:34:10;;;;;;;2.13;1.55;;;16.90;99.90;;;;;;5001751;28;20900;-83
2021/05/08 12:36:38;;;;;;;4.03;1.90;;;16.90;99.90;;;;;;4992546;28;20432;-83
2021/05/08 12:39:25;;;;;;;2.43;1.90;;;16.90;99.90;;;;;;4989722;28;20417;-84
2021/05/08 12:41:56;;;;;;;3.22;1.60;;;16.90;99.90;;;;;;5004893;28;20395;-84
2021/05/08 12:44:46;;;;;;;1.88;1.52;;;16.90;99.90;;;;;;5003054;28;20391;-84
2021/05/08 12:47:18;;;;;;;2.35;1.88;;;16.80;99.90;;;;;;4984541;28;20381;-84
2021/05/08 12:50:07;;;;;;;3.50;1.70;;;16.90;99.90;;;;;;4991100;28;20400;-83
2021/05/08 12:52:35;;;;;;;3.63;2.00;;;16.80;99.90;;;;;;4998021;28;20428;-83
2021/05/08 12:55:02;;;;;;;3.75;1.70;;;16.80;99.90;;;;;;5009101;28;20383;-84
2021/05/08 12:57:39;;;;;;;2.57;1.63;;;16.80;99.90;;;;;;5007606;28;20414;-84
2021/05/08 13:00:10;;;;;;;1.70;1.60;;;16.70;99.90;;;;;;4986621;28;21186;-84